Latest Weather Observations for Thredbo Top Station

IDN60801

Issued at 10:52 pm EDT Wednesday 14 November 2018 (issued every 10 minutes, with the page automatically refreshed every 10 minutes)

About weather observations | Map of weather stations | Latest weather observations for NSW | Other Formats
Station Details ID: 071032 Name: THREDBO AWS Lat: -36.49 Lon: 148.29 Height: 1957.0 m
Data from the previous 72 hours. | See also: Recent months at Thredbo Top Station
Date/Time
EDT
Temp
°C
App
Temp
°C
Dew
Point
°C
Rel
Hum
%
Delta-T
°C
Wind Press
QNH
hPa
Press
MSL
hPa
Rain since
9am
mm
Dir  Spd
km/h
Gust
km/h
Spd
kts
Gust
kts
14/10:30pm 8.0 1.2 7.6 97 0.2 NW 33 46 18 25 1020.7 1015.7 5.2
14/10:00pm 8.0 1.2 7.6 97 0.2 NW 33 43 18 23 1021.3 1016.3 5.2
14/09:30pm 7.9 1.6 7.5 97 0.2 NW 30 41 16 22 1021.1 1016.1 5.2
14/09:00pm 7.7 1.0 7.3 97 0.2 NW 32 44 17 24 1020.8 1015.8 5.2
14/08:30pm 8.0 0.4 7.6 97 0.2 WNW 37 56 20 30 1020.5 1015.5 5.2
14/08:00pm 8.0 0.4 7.6 97 0.2 WNW 37 54 20 29 1020.1 1015.1 5.2
14/07:59pm 8.1 0.9 7.7 97 0.2 WNW 35 54 19 29 1019.9 1014.8 5.2
14/07:30pm 7.9 1.6 7.6 98 0.2 WNW 30 44 16 24 1020.0 1015.0 5.2
14/07:05pm 8.0 1.2 7.6 97 0.2 WNW 33 52 18 28 1019.5 1014.5 5.2
14/07:00pm 8.0 2.1 7.6 97 0.2 WNW 28 43 15 23 1019.7 1014.7 5.2
14/06:30pm 8.0 2.5 7.6 97 0.2 WNW 26 43 14 23 1019.9 1014.8 5.2
14/06:05pm 8.0 2.0 6.9 93 0.6 W 28 50 15 27 1019.7 1014.7 4.8
14/06:00pm 8.5 2.7 8.1 97 0.2 W 28 41 15 22 1019.9 1014.8 4.2
14/05:30pm 8.4 3.0 8.0 97 0.2 WNW 26 41 14 22 1019.7 1014.7 3.8
14/05:00pm 8.5 2.7 8.1 97 0.2 WNW 28 44 15 24 1019.5 1014.5 3.8
14/04:30pm 8.5 1.4 8.1 97 0.2 NW 35 56 19 30 1019.0 1013.9 3.6
14/04:14pm 8.8 3.1 8.4 97 0.2 WNW 28 50 15 27 1019.1 1014.1 3.6
14/04:00pm 8.7 3.4 8.3 97 0.2 WNW 26 44 14 24 1019.4 1014.3 3.6
14/03:30pm 8.8 3.9 8.4 97 0.2 WNW 24 37 13 20 1019.5 1014.5 3.6
14/03:16pm 8.5 2.8 8.2 98 0.2 NW 28 46 15 25 1019.4 1014.3 3.6
14/03:00pm 8.4 3.0 8.1 98 0.2 NW 26 39 14 21 1019.4 1014.3 3.4
14/02:30pm 8.7 4.5 8.4 98 0.2 NW 20 33 11 18 1019.7 1014.7 3.2
14/02:00pm 8.7 3.8 8.3 97 0.2 WNW 24 37 13 20 1019.7 1014.7 2.8
14/01:30pm 8.5 3.9 8.1 97 0.2 WNW 22 33 12 18 1019.7 1014.7 2.8
14/01:00pm 8.7 4.5 8.3 97 0.2 W 20 28 11 15 1019.7 1014.7 2.6
14/12:30pm 8.2 4.5 7.8 97 0.2 W 17 24 9 13 1019.9 1014.8 2.6
14/12:00pm 8.9 4.6 7.8 93 0.6 W 20 33 11 18 1019.9 1014.8 2.6
14/11:30am 8.3 4.6 7.9 97 0.2 WSW 17 24 9 13 1020.0 1015.0 2.6
14/11:00am 8.4 4.5 7.3 93 0.6 W 17 22 9 12 1019.7 1014.7 2.6
14/10:30am 8.6 6.1 8.2 97 0.2 WSW 11 20 6 11 1019.7 1014.7 2.4
14/10:00am 8.0 5.4 7.6 97 0.2 WSW 11 19 6 10 1019.6 1014.6 1.8
14/09:30am 8.2 6.0 7.8 97 0.2 WSW 9 17 5 9 1019.5 1014.5 1.4
14/09:00am 8.1 7.6 7.8 98 0.2 CALM 0 2 0 1 1019.4 1014.3 51.4
14/08:30am 7.7 6.7 7.4 98 0.2 E 2 4 1 2 1019.1 1014.1 49.0
14/08:00am 7.4 6.7 7.1 98 0.2 CALM 0 2 0 1 1019.0 1013.9 46.8
14/07:30am 7.2 5.3 6.9 98 0.2 SW 6 9 3 5 1018.8 1013.7 43.2
14/07:00am 6.9 3.6 6.5 97 0.2 SW 13 15 7 8 1018.7 1013.6 40.0
14/06:30am 8.4 2.2 8.0 97 0.2 NNW 30 48 16 26 1018.0 1012.9 36.2
14/06:07am 8.4 1.7 8.0 97 0.2 NNW 33 54 18 29 1017.3 1012.2 32.6
14/06:00am 8.2 1.6 7.8 97 0.2 N 32 46 17 25 1017.6 1012.4 31.4
14/05:30am 7.3 2.8 6.9 97 0.2 NNW 20 32 11 17 1017.8 1012.7 28.6
14/05:00am 7.3 0.9 6.9 97 0.2 NNW 30 39 16 21 1017.7 1012.6 26.4
14/04:30am 6.9 0.8 6.5 97 0.2 NNW 28 39 15 21 1018.2 1013.1 24.4
14/04:00am 7.0 -0.1 6.6 97 0.2 NW 33 52 18 28 1018.3 1013.2 22.6
14/03:30am 7.5 -2.7 7.1 97 0.2 NNW 50 76 27 41 1017.6 1012.4 20.4
14/03:23am 7.7 -1.1 7.4 98 0.2 NNW 43 76 23 41 1017.2 1012.1 19.6
14/03:00am 7.8 -1.5 7.5 98 0.2 NNW 46 61 25 33 1017.1 1011.9 17.2
14/02:30am 7.9 -2.2 7.6 98 0.2 NNW 50 70 27 38 1016.8 1011.7 13.6
14/02:23am 8.0 -1.3 7.7 98 0.2 NNW 46 65 25 35 1017.7 1012.6 12.4
14/02:00am 7.8 -2.3 7.5 98 0.2 NNW 50 65 27 35 1017.4 1012.3 9.4
14/01:30am 7.6 -2.9 7.3 98 0.2 NNW 52 72 28 39 1017.9 1012.8 7.2
14/01:00am 7.6 -3.7 7.3 98 0.2 NNW 56 74 30 40 1017.7 1012.6 5.4
14/12:30am 7.5 -3.0 7.2 98 0.2 NNW 52 72 28 39 1018.3 1013.2 3.6
14/12:00am 7.5 -4.0 7.2 98 0.2 NNW 57 78 31 42 1018.7 1013.6 1.4
 
Date/Time
EDT
Temp
°C
App
Temp
°C
Dew
Point
°C
Rel
Hum
%
Delta-T
°C
Wind Press
QNH
hPa
Press
MSL
hPa
Rain since
9am
mm
Dir  Spd
km/h
Gust
km/h
Spd
kts
Gust
kts
13/11:31pm 7.3 -2.9 7.0 98 0.2 NNW 50 80 27 43 1019.1 1014.1 0.6
13/11:30pm 7.3 -2.5 7.0 98 0.2 NNW 48 80 26 43 1018.2 1013.1 0.6
13/11:28pm 7.2 -1.7 6.9 98 0.2 NNW 43 61 23 33 1019.0 1013.9 0.6
13/11:00pm 7.1 -1.8 6.8 98 0.2 NNW 43 59 23 32 1020.1 1015.1 0.6
13/10:30pm 7.5 -1.3 7.1 97 0.2 NNW 43 65 23 35 1020.6 1015.6 0.6
13/10:00pm 8.1 -0.2 7.7 97 0.2 NNW 41 69 22 37 1020.2 1015.2 0.6
13/09:57pm 8.2 1.1 7.9 98 0.2 NNW 35 54 19 29 1020.4 1015.3 0.6
13/09:30pm 7.9 -0.5 7.5 97 0.2 NNW 41 57 22 31 1020.8 1015.8 0.6
13/09:00pm 8.0 -0.7 7.6 97 0.2 NNW 43 54 23 29 1020.8 1015.8 0.6
13/08:30pm 8.0 0.0 7.6 97 0.2 NNW 39 46 21 25 1020.6 1015.6 0.6
13/08:00pm 8.2 -0.5 7.8 97 0.2 NW 43 50 23 27 1020.5 1015.5 0.6
13/07:30pm 8.1 0.2 7.7 97 0.2 NNW 39 46 21 25 1020.6 1015.6 0.6
13/07:00pm 8.3 -0.5 7.4 94 0.5 NNW 43 48 23 26 1020.4 1015.3 0.6
13/06:30pm 8.4 -0.4 7.3 93 0.6 NNW 43 50 23 27 1020.5 1015.5 0.6
13/06:00pm 8.5 -0.8 7.4 93 0.6 NNW 46 57 25 31 1020.2 1015.2 0.6
13/05:30pm 8.8 -0.6 7.1 89 0.9 NNW 46 54 25 29 1020.2 1015.2 0.6
13/05:00pm 9.0 -0.4 7.1 88 1.0 NNW 46 56 25 30 1020.1 1015.1 0.6
13/04:30pm 9.5 0.7 7.3 86 1.2 NNW 43 52 23 28 1020.5 1015.5 0.6
13/04:00pm 10.2 1.4 7.3 82 1.5 NNW 43 54 23 29 1021.0 1016.0 0.6
13/03:30pm 9.7 1.3 7.5 86 1.2 NNW 41 52 22 28 1021.0 1016.0 0.6
13/03:00pm 9.6 0.3 7.5 87 1.1 NNW 46 56 25 30 1021.2 1016.2 0.6
13/02:30pm 9.5 -0.4 8.4 93 0.6 NNW 50 63 27 34 1021.6 1016.6 0.6
13/02:00pm 10.1 0.8 9.0 93 0.6 NNW 48 57 26 31 1021.7 1016.7 0.6
13/01:30pm 10.3 1.9 9.5 95 0.4 NNW 44 56 24 30 1022.3 1017.4 0.6
13/01:00pm 8.2 -1.0 7.8 97 0.2 NNW 46 56 25 30 1023.0 1018.1 0.6
13/12:30pm 8.4 -1.0 7.3 93 0.6 NW 46 59 25 32 1023.3 1018.4 0.6
13/12:00pm 8.9 0.0 6.7 86 1.1 NW 43 57 23 31 1023.9 1019.0 0.2
13/11:54am 9.1 -0.9 6.2 82 1.5 NW 48 63 26 34 1023.6 1018.7 0.0
13/11:30am 11.6 -1.3 3.9 59 3.9 NW 61 74 33 40 1022.2 1017.2 0.0
13/11:00am 12.3 -1.8 3.5 55 4.4 NW 67 78 36 42 1021.4 1016.5 0.0
13/10:38am 11.9 0.2 3.2 55 4.3 NNW 54 72 29 39 1021.9 1017.0 0.0
13/10:30am 11.6 0.7 3.6 58 4.0 NNW 50 63 27 34 1022.5 1017.6 0.0
13/10:00am 12.4 2.6 3.4 54 4.5 NNW 44 57 24 31 1023.1 1018.2 0.0
13/09:30am 13.1 3.4 3.7 53 4.7 NNW 44 59 24 32 1023.3 1018.4 0.0
13/09:00am 12.6 2.9 3.0 52 4.7 NNW 43 57 23 31 1023.0 1018.1 0.0
13/08:30am 11.9 1.3 3.2 55 4.3 NNW 48 63 26 34 1022.5 1017.6 0.0
13/08:00am 11.8 -0.6 2.5 53 4.5 NNW 57 70 31 38 1021.8 1016.8 0.0
13/07:30am 11.3 -1.2 2.3 54 4.3 NW 57 69 31 37 1021.7 1016.7 0.0
13/07:00am 11.2 -1.3 2.0 53 4.4 NNW 57 69 31 37 1021.4 1016.5 0.0
13/06:30am 11.1 -1.3 1.4 51 4.6 NNW 56 69 30 37 1021.6 1016.6 0.0
13/06:00am 11.3 -1.4 0.7 48 4.9 NW 57 65 31 35 1021.1 1016.1 0.0
13/05:30am 11.6 -0.2 0.4 46 5.2 NW 52 65 28 35 1021.3 1016.3 0.0
13/05:00am 11.6 0.2 0.4 46 5.2 NW 50 57 27 31 1021.7 1016.7 0.0
13/04:30am 11.3 1.0 0.4 47 5.1 NNW 44 52 24 28 1021.6 1016.6 0.0
13/04:00am 11.4 -0.4 0.2 46 5.2 NNW 52 59 28 32 1021.7 1016.7 0.0
13/03:30am 11.8 -0.5 -0.4 43 5.6 NW 54 61 29 33 1021.4 1016.5 0.0
13/03:00am 11.8 0.3 -0.4 43 5.6 NW 50 61 27 33 1021.8 1016.8 0.0
13/02:30am 11.7 1.9 -0.1 44 5.4 NNW 41 54 22 29 1022.3 1017.4 0.0
13/02:00am 11.5 2.9 0.0 45 5.3 NNW 35 46 19 25 1023.3 1018.4 0.0
13/01:30am 11.5 3.8 0.0 45 5.3 NNW 30 39 16 21 1023.6 1018.7 0.0
13/01:00am 11.2 3.1 -0.3 45 5.2 NNW 32 41 17 22 1024.0 1019.1 0.0
13/12:30am 11.2 3.1 -0.3 45 5.2 NNW 32 37 17 20 1024.2 1019.4 0.0
13/12:00am 10.6 3.7 0.3 49 4.7 NNW 26 32 14 17 1024.8 1020.0 0.0
 
Date/Time
EDT
Temp
°C
App
Temp
°C
Dew
Point
°C
Rel
Hum
%
Delta-T
°C
Wind Press
QNH
hPa
Press
MSL
hPa
Rain since
9am
mm
Dir  Spd
km/h
Gust
km/h
Spd
kts
Gust
kts
12/11:30pm 10.2 3.7 0.5 51 4.5 NNW 24 28 13 15 1025.0 1020.1 0.0
12/11:00pm 10.3 3.0 0.3 50 4.6 NNW 28 33 15 18 1025.1 1020.3 0.0
12/10:30pm 11.5 1.7 0.0 45 5.3 NW 41 44 22 24 1024.8 1020.0 0.0
12/10:00pm 11.5 2.2 0.3 46 5.2 NW 39 44 21 24 1025.1 1020.3 0.0
12/09:30pm 11.5 2.4 -0.3 44 5.4 NW 37 43 20 23 1025.0 1020.1 0.0
12/09:00pm 11.2 2.1 -0.3 45 5.2 NW 37 43 20 23 1025.0 1020.1 0.0
12/08:30pm 10.8 3.0 1.9 54 4.2 NW 32 37 17 20 1025.0 1020.1 0.0
12/08:00pm 10.0 3.0 2.1 58 3.7 NW 28 35 15 19 1025.1 1020.3 0.0
12/07:30pm 10.6 4.4 1.9 55 4.1 NW 24 32 13 17 1025.2 1020.4 0.0
12/07:00pm 11.0 3.9 1.3 51 4.6 NNW 28 33 15 18 1025.0 1020.1 0.0
12/06:30pm 11.4 5.1 1.4 50 4.7 NNW 24 32 13 17 1024.8 1020.0 0.0
12/06:00pm 12.0 4.9 1.3 48 5.1 NNW 28 35 15 19 1024.8 1020.0 0.0
12/05:30pm 11.9 4.5 -0.6 42 5.7 NNW 28 39 15 21 1025.0 1020.1 0.0
12/05:00pm 12.5 5.9 -0.4 41 5.9 NW 24 32 13 17 1025.2 1020.4 0.0
12/04:30pm 12.2 6.5 0.6 45 5.4 NW 20 30 11 16 1025.1 1020.3 0.0
12/04:00pm 12.7 6.4 1.4 46 5.4 NNW 24 35 13 19 1025.2 1020.4 0.0
12/03:30pm 12.4 6.6 -0.1 42 5.8 NW 20 30 11 16 1025.3 1020.5 0.0
12/03:00pm 13.1 6.8 -1.2 37 6.5 NW 22 33 12 18 1025.7 1020.9 0.0
12/02:30pm 14.3 8.3 1.2 41 6.3 NW 22 35 12 19 1025.7 1020.9 0.0
12/02:00pm 13.4 6.7 1.4 44 5.8 NW 26 41 14 22 1025.8 1021.0 0.0
12/01:30pm 13.2 6.2 1.8 46 5.5 NW 28 37 15 20 1025.9 1021.1 0.0
12/01:00pm 12.1 4.4 -0.1 43 5.6 NW 30 43 16 23 1026.0 1021.3 0.0
12/12:30pm 13.7 6.0 0.0 39 6.4 NW 30 44 16 24 1026.4 1021.6 0.0
12/12:00pm 13.0 4.8 -1.3 37 6.5 NW 32 46 17 25 1026.3 1021.5 0.0
12/11:30am 13.5 5.4 -2.8 32 7.2 NW 30 39 16 21 1026.7 1021.9 0.0
12/11:00am 13.0 4.5 -2.9 33 6.9 NW 32 46 17 25 1026.5 1021.8 0.0
12/10:30am 13.4 5.3 -2.9 32 7.2 NW 30 43 16 23 1026.8 1022.0 0.0
12/10:00am 12.3 4.7 -5.2 29 7.2 NW 26 37 14 20 1026.9 1022.1 0.0
12/09:30am 11.9 4.6 -3.1 35 6.5 NW 26 39 14 21 1026.9 1022.1 0.0
12/09:00am 11.4 3.7 -3.1 36 6.2 NW 28 41 15 22 1026.7 1021.9 0.0
12/08:30am 10.7 2.9 -4.1 35 6.2 NW 28 39 15 21 1026.3 1021.5 0.0
12/08:00am 10.2 2.1 -3.5 38 5.7 NW 30 41 16 22 1026.2 1021.4 0.0
12/07:30am 9.5 1.4 -3.1 41 5.3 NW 30 39 16 21 1025.7 1020.9 0.0
12/07:00am 8.7 0.1 -2.9 44 4.9 NW 33 43 18 23 1025.4 1020.6 0.0
12/06:30am 8.0 -1.3 -1.8 50 4.2 NW 37 44 20 24 1025.2 1020.4 0.0
12/06:00am 7.4 -0.9 -1.5 53 3.8 NW 32 43 17 23 1025.0 1020.1 0.0
12/05:30am 6.8 -1.1 -1.6 55 3.6 NW 30 39 16 21 1024.8 1020.0 0.0
12/05:00am 6.6 -0.5 -1.1 58 3.3 NW 26 33 14 18 1025.0 1020.1 0.0
12/04:30am 6.1 1.2 -0.6 62 2.9 WNW 15 24 8 13 1025.2 1020.4 0.0
12/04:00am 6.1 1.0 0.9 69 2.3 NW 17 26 9 14 1025.2 1020.4 0.0
12/03:30am 6.4 1.5 1.7 72 2.2 NW 17 24 9 13 1025.1 1020.3 0.0
12/03:00am 5.9 3.0 1.4 73 2.0 WNW 6 15 3 8 1025.2 1020.4 0.0
12/02:30am 5.9 1.7 1.6 74 2.0 NW 13 20 7 11 1025.3 1020.5 0.0
12/02:00am 5.6 1.2 2.8 82 1.3 NW 15 22 8 12 1025.3 1020.5 0.0
12/01:30am 3.8 0.1 2.3 90 0.7 NW 11 15 6 8 1025.8 1021.0 0.0
12/01:00am 4.6 1.0 3.1 90 0.7 NW 11 13 6 7 1025.9 1021.1 0.0
12/12:30am 4.4 0.3 4.1 98 0.1 NW 15 17 8 9 1026.3 1021.5 0.0
12/12:00am 5.5 0.6 5.2 98 0.1 NNW 20 24 11 13 1026.4 1021.6 0.0
 
Date/Time
EDT
Temp
°C
App
Temp
°C
Dew
Point
°C
Rel
Hum
%
Delta-T
°C
Wind Press
QNH
hPa
Press
MSL
hPa
Rain since
9am
mm
Dir  Spd
km/h
Gust
km/h
Spd
kts
Gust
kts
11/11:30pm 6.1 3.4 5.7 97 0.2 NNE 9 15 5 8 1026.5 1021.8 0.0
11/11:00pm 6.0 3.7 5.7 98 0.1 NE 7 13 4 7 1026.5 1021.8 0.0

Other Formats:

Comma delimited format used in spreadsheet applications
http://www.bom.gov.au/fwo/IDN60801/IDN60801.95909.axf

JavaScript Object Notation format (JSON) in row-major order
http://www.bom.gov.au/fwo/IDN60801/IDN60801.95909.json